Time;durP1;ratioP1;P1;durP2;ratioP2;P2;SDS_P1;SDS_P2;PMS_P1;PMS_P2;Temp;Humidity;BMP_temperature;BMP_pressure;BME280_temperature;BME280_humidity;BME280_pressure;Samples;Min_cycle;Max_cycle;Signal;HPM_P1;HPM_P2
2021/12/31 00:01:06;;;;;;;53.15;33.33;;;7.00;99.90;;;;;;4999757;28;20025;-49
2021/12/31 00:03:32;;;;;;;53.20;33.22;;;7.20;99.90;;;;;;5015470;28;20034;-48
2021/12/31 00:05:57;;;;;;;55.50;35.83;;;7.20;99.90;;;;;;5015040;28;20026;-48
2021/12/31 00:08:23;;;;;;;58.60;37.20;;;7.30;99.90;;;;;;5015326;28;20052;-49
2021/12/31 00:10:54;;;;;;;65.78;41.30;;;7.50;99.90;;;;;;5015188;28;20030;-48
2021/12/31 00:13:20;;;;;;;54.95;34.85;;;7.40;99.90;;;;;;5014950;28;20037;-48
2021/12/31 00:15:46;;;;;;;64.88;39.38;;;7.20;99.90;;;;;;4980670;28;20034;-48
2021/12/31 00:18:11;;;;;;;51.72;33.30;;;7.00;99.90;;;;;;5014845;28;20058;-47
2021/12/31 00:20:40;;;;;;;50.15;31.55;;;6.90;99.90;;;;;;5014650;28;20105;-47
2021/12/31 00:23:07;;;;;;;48.58;31.95;;;6.90;99.90;;;;;;4996974;28;20124;-48
2021/12/31 00:25:37;;;;;;;53.50;32.70;;;7.00;99.90;;;;;;5012862;28;20045;-48
2021/12/31 00:28:04;;;;;;;49.10;29.60;;;6.90;99.90;;;;;;4960417;28;20042;-49
2021/12/31 00:30:30;;;;;;;51.30;32.50;;;6.60;99.90;;;;;;4976488;28;20158;-48
2021/12/31 00:32:56;;;;;;;52.65;31.60;;;6.60;99.90;;;;;;4960475;28;20069;-48
2021/12/31 00:35:22;;;;;;;50.00;31.98;;;6.60;99.90;;;;;;4992789;28;20109;-48
2021/12/31 00:37:48;;;;;;;46.58;31.05;;;6.70;99.90;;;;;;4960413;28;20465;-48
2021/12/31 00:40:15;;;;;;;51.08;31.92;;;6.90;99.90;;;;;;4992742;28;20030;-48
2021/12/31 00:42:42;;;;;;;47.55;30.38;;;7.00;99.90;;;;;;4992570;28;20038;-48
2021/12/31 00:45:10;;;;;;;53.03;31.88;;;7.20;99.90;;;;;;4992691;28;20030;-48
2021/12/31 00:47:36;;;;;;;52.00;32.47;;;7.20;99.90;;;;;;4976377;28;20030;-49
2021/12/31 00:50:03;;;;;;;53.30;32.50;;;7.30;99.90;;;;;;4992656;28;20093;-48
2021/12/31 00:52:29;;;;;;;52.17;33.58;;;7.30;99.90;;;;;;4976130;28;20038;-48
2021/12/31 00:54:55;;;;;;;57.13;34.60;;;7.10;99.90;;;;;;4992805;28;20114;-48
2021/12/31 00:57:20;;;;;;;54.38;34.13;;;7.20;99.90;;;;;;4992319;28;20062;-48
2021/12/31 00:59:46;;;;;;;57.92;33.33;;;7.30;99.90;;;;;;4992404;28;20513;-48
2021/12/31 01:02:13;;;;;;;58.90;35.33;;;7.20;99.90;;;;;;5012182;28;20493;-48
2021/12/31 01:04:39;;;;;;;61.10;36.67;;;7.30;99.90;;;;;;5013896;28;20053;-48
2021/12/31 01:07:06;;;;;;;60.20;38.35;;;7.20;99.90;;;;;;5014143;28;20060;-49
2021/12/31 01:09:32;;;;;;;65.90;37.72;;;7.40;99.90;;;;;;4995836;28;20077;-50
2021/12/31 01:11:59;;;;;;;61.38;37.33;;;7.40;99.90;;;;;;5014177;28;20018;-49
2021/12/31 01:14:40;;;;;;;57.25;36.08;;;7.40;99.90;;;;;;5012006;28;20038;-48
2021/12/31 01:17:10;;;;;;;58.92;38.30;;;7.50;99.90;;;;;;5013616;28;20074;-48
2021/12/31 01:19:45;;;;;;;56.22;35.85;;;7.60;99.90;;;;;;5014064;28;20034;-48
2021/12/31 01:22:14;;;;;;;58.75;35.92;;;7.60;99.90;;;;;;5013798;28;20072;-48
2021/12/31 01:24:40;;;;;;;50.20;33.33;;;7.60;99.90;;;;;;5013958;28;20033;-48
2021/12/31 01:27:06;;;;;;;56.25;36.50;;;7.60;99.90;;;;;;5011977;28;20091;-48
2021/12/31 01:29:32;;;;;;;55.08;35.00;;;7.50;99.90;;;;;;5013746;28;20056;-49
2021/12/31 01:31:57;;;;;;;53.55;34.58;;;7.70;99.90;;;;;;5013561;28;20076;-49
2021/12/31 01:34:24;;;;;;;49.97;32.65;;;7.70;99.90;;;;;;5011785;28;20080;-48
2021/12/31 01:36:51;;;;;;;47.42;32.15;;;7.70;99.90;;;;;;5013509;28;20168;-48
2021/12/31 01:39:17;;;;;;;50.38;33.42;;;7.80;99.90;;;;;;5013566;28;20026;-48
2021/12/31 01:41:43;;;;;;;48.38;30.27;;;7.60;99.90;;;;;;5013524;28;20492;-48
2021/12/31 01:44:09;;;;;;;53.28;33.67;;;7.50;99.90;;;;;;5013672;28;20030;-48
2021/12/31 01:46:39;;;;;;;51.55;34.15;;;7.40;99.90;;;;;;5013451;28;20465;-47
2021/12/31 01:49:17;;;;;;;54.15;33.80;;;7.50;99.90;;;;;;4996081;28;20038;-48
2021/12/31 01:51:43;;;;;;;49.17;34.00;;;7.70;99.90;;;;;;5013441;28;20052;-49
2021/12/31 01:54:09;;;;;;;50.17;32.58;;;7.90;99.90;;;;;;5013641;28;20030;-48
2021/12/31 01:56:36;;;;;;;46.42;32.65;;;8.10;99.90;;;;;;5013784;28;20044;-49
2021/12/31 01:59:04;;;;;;;55.33;31.83;;;8.30;99.90;;;;;;5013501;28;20445;-49
2021/12/31 02:01:30;;;;;;;50.80;35.05;;;8.30;99.90;;;;;;5013220;28;20025;-57
2021/12/31 02:03:57;;;;;;;54.53;37.28;;;8.40;99.90;;;;;;5013311;28;20466;-49
2021/12/31 02:06:22;;;;;;;63.35;40.88;;;8.40;99.90;;;;;;5011649;28;20109;-47
2021/12/31 02:08:48;;;;;;;75.85;45.92;;;8.30;99.90;;;;;;5013192;28;20077;-48
2021/12/31 02:11:18;;;;;;;73.97;44.90;;;8.30;99.90;;;;;;4980266;28;20034;-48
2021/12/31 02:13:44;;;;;;;66.47;43.72;;;8.30;99.90;;;;;;5017459;28;20065;-48
2021/12/31 02:16:10;;;;;;;65.60;43.67;;;8.40;99.90;;;;;;5018745;28;20034;-49
2021/12/31 02:18:36;;;;;;;77.13;48.28;;;8.40;99.90;;;;;;5018759;28;20037;-48
2021/12/31 02:21:03;;;;;;;79.47;50.58;;;8.40;99.90;;;;;;5016557;28;20042;-49
2021/12/31 02:23:38;;;;;;;73.13;45.67;;;8.40;99.90;;;;;;5019050;28;20116;-48
2021/12/31 02:26:07;;;;;;;82.15;49.20;;;8.60;99.90;;;;;;5018209;28;20052;-47
2021/12/31 02:28:33;;;;;;;76.63;48.55;;;8.60;99.90;;;;;;5018725;28;20048;-48
2021/12/31 02:31:03;;;;;;;67.00;43.47;;;8.70;99.90;;;;;;5018549;28;20478;-48
2021/12/31 02:33:28;;;;;;;72.78;46.67;;;8.70;99.90;;;;;;5001723;28;20041;-49
2021/12/31 02:35:54;;;;;;;73.47;48.10;;;8.70;99.90;;;;;;5001046;28;20088;-49
2021/12/31 02:38:20;;;;;;;70.68;44.45;;;8.80;99.90;;;;;;5019268;28;20052;-47
2021/12/31 02:40:46;;;;;;;58.22;39.88;;;8.80;99.90;;;;;;5019417;28;20377;-61
2021/12/31 02:43:12;;;;;;;62.63;42.15;;;8.80;99.90;;;;;;5000934;28;20045;-49
2021/12/31 02:45:40;;;;;;;72.30;49.50;;;8.90;99.90;;;;;;5019685;28;20068;-48
2021/12/31 02:48:06;;;;;;;71.35;46.70;;;8.90;99.90;;;;;;5019998;28;20109;-53
2021/12/31 02:50:35;;;;;;;69.25;46.67;;;8.90;99.90;;;;;;5019692;28;20493;-48
2021/12/31 02:53:08;;;;;;;80.25;52.30;;;8.80;99.90;;;;;;5018932;28;20037;-50
2021/12/31 02:55:36;;;;;;;85.00;55.90;;;8.70;99.90;;;;;;4997952;28;20441;-48
2021/12/31 02:58:04;;;;;;;89.28;58.40;;;8.60;99.90;;;;;;4997930;28;20504;-55
2021/12/31 03:00:30;;;;;;;96.88;61.03;;;8.40;99.90;;;;;;4964544;28;20053;-56
2021/12/31 03:02:58;;;;;;;93.57;60.00;;;8.60;99.90;;;;;;4997101;28;20542;-49
2021/12/31 03:05:27;;;;;;;119.43;73.82;;;8.50;99.90;;;;;;4997501;28;20097;-48
2021/12/31 03:07:54;;;;;;;132.68;80.55;;;8.50;99.90;;;;;;4996444;28;20022;-49
2021/12/31 03:10:22;;;;;;;132.85;84.30;;;8.50;99.90;;;;;;4997007;28;20493;-53
2021/12/31 03:12:50;;;;;;;276.63;132.80;;;8.50;99.90;;;;;;4997681;28;20042;-53
2021/12/31 03:15:17;;;;;;;251.82;119.65;;;8.60;99.90;;;;;;4995057;28;20057;-49
2021/12/31 03:17:44;;;;;;;132.25;77.60;;;8.60;99.90;;;;;;4994025;28;20050;-48
2021/12/31 03:20:57;;;;;;;224.05;101.07;;;8.00;99.90;;;;;;4994062;28;20036;-49
2021/12/31 03:22:57;;;;;;;137.45;76.57;;;8.00;99.90;;;;;;4983997;28;20065;-48
2021/12/31 03:25:22;;;;;;;153.05;87.07;;;8.20;99.90;;;;;;4994269;28;20475;-48
2021/12/31 03:27:48;;;;;;;217.68;102.90;;;8.20;99.90;;;;;;5015736;28;20025;-48
2021/12/31 03:30:16;;;;;;;202.80;95.80;;;8.20;99.90;;;;;;5015897;28;20030;-48
2021/12/31 03:32:41;;;;;;;118.90;71.72;;;8.30;99.90;;;;;;5015628;28;20037;-47
2021/12/31 03:35:08;;;;;;;126.28;76.47;;;7.90;99.90;;;;;;5015682;28;20029;-48
2021/12/31 03:37:33;;;;;;;113.40;66.65;;;7.60;99.90;;;;;;5015613;28;20066;-47
2021/12/31 03:39:59;;;;;;;101.57;64.63;;;7.70;99.90;;;;;;5015483;28;20037;-49
2021/12/31 03:42:25;;;;;;;97.60;61.22;;;7.80;99.90;;;;;;5015252;28;20067;-49
2021/12/31 03:44:50;;;;;;;91.93;59.63;;;8.00;99.90;;;;;;5015405;28;20033;-46
2021/12/31 03:47:16;;;;;;;97.28;63.30;;;8.10;99.90;;;;;;5015793;28;20037;-49
2021/12/31 03:49:42;;;;;;;91.75;60.13;;;8.20;99.90;;;;;;5013564;28;20034;-51
2021/12/31 03:52:07;;;;;;;119.43;78.72;;;8.20;99.90;;;;;;5015325;28;20026;-49
2021/12/31 03:54:33;;;;;;;343.15;127.22;;;8.20;99.90;;;;;;5015547;28;20037;-46
2021/12/31 03:56:59;;;;;;;222.30;94.38;;;7.70;99.90;;;;;;5013348;28;20561;-49
2021/12/31 03:59:25;;;;;;;139.25;75.40;;;7.70;99.90;;;;;;4996906;28;20432;-48
2021/12/31 04:01:50;;;;;;;111.95;69.63;;;7.60;99.90;;;;;;5014859;28;20034;-47
2021/12/31 04:04:16;;;;;;;93.57;57.78;;;7.50;99.90;;;;;;5014605;28;20036;-48
2021/12/31 04:06:42;;;;;;;80.30;50.45;;;7.40;99.90;;;;;;5008754;28;20463;-50
2021/12/31 04:09:08;;;;;;;80.38;54.92;;;7.20;99.90;;;;;;4995925;28;20410;-46
2021/12/31 04:11:34;;;;;;;80.95;50.75;;;7.00;99.90;;;;;;4995423;28;20027;-45
2021/12/31 04:13:59;;;;;;;75.93;48.90;;;7.10;99.90;;;;;;5012158;28;20037;-48
2021/12/31 04:16:25;;;;;;;80.20;50.28;;;7.00;99.90;;;;;;5012265;28;20519;-46
2021/12/31 04:18:51;;;;;;;71.80;43.25;;;6.90;99.90;;;;;;5011957;28;20522;-47
2021/12/31 04:21:19;;;;;;;96.00;55.25;;;6.70;99.90;;;;;;4977195;28;20034;-50
2021/12/31 04:23:52;;;;;;;157.13;75.60;;;6.90;99.90;;;;;;4995060;28;20034;-50
2021/12/31 04:26:18;;;;;;;137.07;64.95;;;7.10;99.90;;;;;;4995391;28;20029;-50
2021/12/31 04:28:44;;;;;;;179.32;80.55;;;7.30;99.90;;;;;;4985999;28;20564;-49
2021/12/31 04:31:10;;;;;;;200.05;88.88;;;7.50;99.90;;;;;;4995022;28;20036;-49
2021/12/31 04:33:36;;;;;;;128.55;67.80;;;7.70;99.90;;;;;;4995224;28;20069;-47
2021/12/31 04:36:02;;;;;;;141.70;71.72;;;7.80;99.90;;;;;;4976290;28;20176;-49
2021/12/31 04:38:28;;;;;;;84.35;45.17;;;7.80;99.90;;;;;;4994761;28;20494;-46
2021/12/31 04:40:54;;;;;;;91.75;56.38;;;7.40;99.90;;;;;;4994980;28;20082;-52
2021/12/31 04:43:19;;;;;;;90.80;56.92;;;7.50;99.90;;;;;;4994808;28;20104;-46
2021/12/31 04:45:45;;;;;;;66.38;41.75;;;7.50;99.90;;;;;;4976732;28;20034;-51
2021/12/31 04:48:11;;;;;;;164.02;69.13;;;7.50;99.90;;;;;;4944481;28;20041;-48
2021/12/31 04:50:37;;;;;;;196.88;86.05;;;7.70;99.90;;;;;;4994959;28;20536;-46
2021/12/31 04:53:04;;;;;;;201.27;91.72;;;7.80;99.90;;;;;;4994589;28;20030;-47
2021/12/31 04:55:31;;;;;;;93.45;51.25;;;7.90;99.90;;;;;;4976425;28;20049;-48
2021/12/31 04:57:57;;;;;;;79.68;55.33;;;8.10;99.90;;;;;;4994938;28;20031;-50
2021/12/31 05:00:23;;;;;;;77.95;51.53;;;8.10;99.90;;;;;;4994929;28;20030;-50
2021/12/31 05:02:48;;;;;;;71.53;48.22;;;8.20;99.90;;;;;;4976333;28;20049;-50
2021/12/31 05:05:14;;;;;;;106.28;65.40;;;8.20;99.90;;;;;;4994369;28;20034;-49
2021/12/31 05:07:40;;;;;;;67.38;44.85;;;7.80;99.90;;;;;;4983189;28;20045;-47
2021/12/31 05:10:07;;;;;;;66.55;42.65;;;7.60;99.90;;;;;;5013869;28;20026;-52
2021/12/31 05:12:35;;;;;;;59.30;37.47;;;7.50;99.90;;;;;;4940346;28;20080;-49
2021/12/31 05:15:02;;;;;;;58.03;39.20;;;7.50;99.90;;;;;;5013088;28;20481;-46
2021/12/31 05:17:28;;;;;;;61.00;38.85;;;7.40;99.90;;;;;;4995545;28;20111;-47
2021/12/31 05:19:54;;;;;;;50.83;35.70;;;7.40;99.90;;;;;;5013691;28;20101;-49
2021/12/31 05:22:20;;;;;;;59.70;38.75;;;7.30;99.90;;;;;;5006372;28;20030;-49
2021/12/31 05:24:45;;;;;;;44.78;26.95;;;7.20;99.90;;;;;;4997371;28;20378;-50
2021/12/31 05:27:11;;;;;;;45.05;29.10;;;6.90;99.90;;;;;;4994095;28;20048;-50
2021/12/31 05:29:37;;;;;;;41.85;27.13;;;6.70;99.90;;;;;;4976011;28;20045;-46
2021/12/31 05:32:04;;;;;;;41.30;28.63;;;6.70;99.90;;;;;;4994267;28;20026;-51
2021/12/31 05:34:29;;;;;;;49.42;30.30;;;6.80;99.90;;;;;;4976218;28;20046;-52
2021/12/31 05:36:55;;;;;;;47.95;30.15;;;6.90;99.90;;;;;;4975833;28;20039;-45
2021/12/31 05:39:21;;;;;;;47.42;30.75;;;6.80;99.90;;;;;;4994017;28;20080;-48
2021/12/31 05:41:47;;;;;;;43.70;27.92;;;6.90;99.90;;;;;;4992010;28;20041;-48
2021/12/31 05:44:12;;;;;;;39.17;23.92;;;6.80;99.90;;;;;;4993843;28;20026;-50
2021/12/31 05:46:40;;;;;;;44.92;28.73;;;6.70;99.90;;;;;;4994147;28;20419;-48
2021/12/31 05:49:06;;;;;;;39.33;26.98;;;6.60;99.90;;;;;;4997386;28;20076;-47
2021/12/31 05:51:32;;;;;;;46.00;28.35;;;6.70;99.90;;;;;;4981205;28;20042;-54
2021/12/31 05:53:58;;;;;;;41.97;27.52;;;6.70;99.90;;;;;;4998511;28;20038;-53
2021/12/31 05:56:24;;;;;;;38.78;26.60;;;6.80;99.90;;;;;;5002724;28;20038;-48
2021/12/31 05:58:49;;;;;;;45.05;30.00;;;6.80;99.90;;;;;;5011850;28;20041;-46
2021/12/31 06:01:15;;;;;;;48.38;32.15;;;6.90;99.90;;;;;;5017007;28;20026;-47
2021/12/31 06:03:41;;;;;;;47.42;30.85;;;7.10;99.90;;;;;;5017026;28;20034;-49
2021/12/31 06:06:07;;;;;;;72.80;43.22;;;7.30;99.90;;;;;;5014774;28;20046;-49
2021/12/31 06:08:32;;;;;;;63.42;40.55;;;7.00;99.90;;;;;;5017420;28;20030;-49
2021/12/31 06:10:58;;;;;;;55.35;38.40;;;6.90;99.90;;;;;;5017148;28;20036;-48
2021/12/31 06:13:24;;;;;;;54.85;37.72;;;7.00;99.90;;;;;;5017637;28;20377;-50
2021/12/31 06:15:56;;;;;;;51.20;35.47;;;7.10;99.90;;;;;;4998729;28;20030;-48
2021/12/31 06:18:22;;;;;;;53.28;35.05;;;7.00;99.90;;;;;;5017039;28;20128;-50
2021/12/31 06:20:48;;;;;;;53.17;35.22;;;7.00;99.90;;;;;;5017462;28;20058;-49
2021/12/31 06:23:14;;;;;;;47.83;32.63;;;7.00;99.90;;;;;;5017569;28;20128;-51
2021/12/31 06:25:39;;;;;;;48.85;33.55;;;7.20;99.90;;;;;;5016431;28;20024;-47
2021/12/31 06:28:05;;;;;;;58.22;39.65;;;7.20;99.90;;;;;;4982314;28;20026;-49
2021/12/31 06:30:31;;;;;;;53.20;39.10;;;7.30;99.90;;;;;;5017252;28;20026;-49
2021/12/31 06:32:57;;;;;;;55.10;39.83;;;7.60;99.90;;;;;;4982057;28;20041;-50
2021/12/31 06:35:23;;;;;;;64.22;38.83;;;7.80;99.90;;;;;;4952696;28;20038;-52
2021/12/31 06:37:51;;;;;;;76.70;49.95;;;7.90;99.90;;;;;;4975442;28;20049;-53
2021/12/31 06:40:17;;;;;;;73.03;49.80;;;8.10;99.90;;;;;;4975232;28;20043;-49
2021/12/31 06:42:43;;;;;;;78.63;54.10;;;8.20;99.90;;;;;;4981909;28;20121;-51
2021/12/31 06:45:09;;;;;;;104.63;66.57;;;8.20;99.90;;;;;;4946396;28;20476;-47
2021/12/31 06:47:36;;;;;;;126.15;73.47;;;8.20;99.90;;;;;;4995940;28;20035;-48
2021/12/31 06:50:02;;;;;;;157.35;91.35;;;8.20;99.90;;;;;;4995840;28;20022;-52
2021/12/31 06:52:28;;;;;;;178.68;104.30;;;8.30;99.90;;;;;;4995434;28;20042;-52
2021/12/31 06:54:54;;;;;;;166.55;97.15;;;8.40;99.90;;;;;;4995734;28;20038;-50
2021/12/31 06:57:20;;;;;;;142.68;95.50;;;8.60;99.90;;;;;;4994494;28;20046;-48
2021/12/31 06:59:46;;;;;;;157.05;97.00;;;8.60;99.90;;;;;;4994332;28;20053;-52
2021/12/31 07:02:12;;;;;;;185.55;107.63;;;8.60;99.90;;;;;;4994587;28;20058;-50
2021/12/31 07:04:37;;;;;;;201.73;116.30;;;8.80;99.90;;;;;;4962025;28;20038;-51
2021/12/31 07:07:03;;;;;;;186.27;110.85;;;8.90;99.90;;;;;;4994422;28;20034;-49
2021/12/31 07:09:30;;;;;;;160.82;103.65;;;9.10;99.90;;;;;;5011560;28;20123;-51
2021/12/31 07:11:55;;;;;;;121.55;82.15;;;9.10;99.90;;;;;;5016421;28;20060;-47
2021/12/31 07:14:21;;;;;;;112.00;75.07;;;9.20;99.90;;;;;;4981713;28;20120;-50
2021/12/31 07:16:47;;;;;;;112.55;78.22;;;9.20;99.90;;;;;;5015721;28;20386;-51
2021/12/31 07:19:13;;;;;;;110.90;75.32;;;9.30;99.90;;;;;;5015842;28;20034;-48
2021/12/31 07:21:38;;;;;;;106.65;74.47;;;9.30;99.90;;;;;;5014149;28;20088;-50
2021/12/31 07:24:05;;;;;;;110.28;73.43;;;9.40;99.90;;;;;;5015730;28;20109;-49
2021/12/31 07:26:30;;;;;;;99.70;69.35;;;9.40;99.90;;;;;;5015716;28;20037;-52
2021/12/31 07:28:56;;;;;;;98.85;67.93;;;9.50;99.90;;;;;;5015706;28;20022;-48
2021/12/31 07:31:22;;;;;;;95.63;67.68;;;9.50;99.90;;;;;;5015707;28;20032;-50
2021/12/31 07:33:47;;;;;;;85.93;64.55;;;9.60;99.90;;;;;;5016138;28;20040;-51
2021/12/31 07:36:13;;;;;;;90.10;64.43;;;9.60;99.90;;;;;;4997310;28;20034;-46
2021/12/31 07:38:46;;;;;;;97.45;65.18;;;9.60;99.90;;;;;;4948574;28;20053;-48
2021/12/31 07:41:12;;;;;;;176.93;117.32;;;9.60;99.90;;;;;;5015342;28;20041;-48
2021/12/31 07:43:38;;;;;;;98.00;69.65;;;9.60;99.90;;;;;;5015658;28;20017;-50
2021/12/31 07:46:03;;;;;;;83.13;57.75;;;9.70;99.90;;;;;;4997218;28;20065;-52
2021/12/31 07:48:29;;;;;;;96.70;63.25;;;9.60;99.90;;;;;;4997309;28;20112;-49
2021/12/31 07:50:55;;;;;;;77.90;52.88;;;9.50;99.90;;;;;;4997242;28;20030;-48
2021/12/31 07:53:21;;;;;;;65.22;45.53;;;9.30;99.90;;;;;;4997104;28;20034;-46
2021/12/31 07:55:47;;;;;;;69.25;49.10;;;9.50;99.90;;;;;;5015450;28;20108;-50
2021/12/31 07:58:13;;;;;;;66.03;45.10;;;9.60;99.90;;;;;;5015518;28;20117;-50
2021/12/31 08:00:39;;;;;;;64.32;43.88;;;9.70;99.90;;;;;;5013780;28;20064;-49
2021/12/31 08:03:04;;;;;;;55.25;39.25;;;9.80;99.90;;;;;;5013380;28;20440;-51
2021/12/31 08:05:32;;;;;;;60.13;40.08;;;9.90;99.90;;;;;;4980912;28;20478;-51
2021/12/31 08:08:00;;;;;;;55.58;42.72;;;10.00;99.90;;;;;;5015166;28;20497;-49
2021/12/31 08:10:26;;;;;;;79.25;51.17;;;9.90;99.90;;;;;;5014064;28;20040;-50
2021/12/31 08:12:52;;;;;;;85.05;56.90;;;10.00;99.90;;;;;;5013139;28;20042;-48
2021/12/31 08:15:17;;;;;;;85.32;52.40;;;10.10;99.90;;;;;;5014866;28;20038;-52
2021/12/31 08:17:43;;;;;;;51.75;36.97;;;10.20;99.90;;;;;;4996428;28;20520;-50
2021/12/31 08:20:09;;;;;;;83.00;53.35;;;10.50;99.90;;;;;;5015193;28;20030;-51
2021/12/31 08:22:36;;;;;;;68.82;43.72;;;11.20;99.90;;;;;;4932742;28;20112;-48
2021/12/31 08:25:03;;;;;;;89.85;56.50;;;12.10;99.90;;;;;;5014895;28;20037;-51
2021/12/31 08:27:29;;;;;;;138.77;78.07;;;;;;;;;;4964345;28;20475;-51
2021/12/31 08:29:54;;;;;;;91.97;57.63;;;15.80;99.90;;;;;;5014880;28;20025;-51
2021/12/31 08:32:21;;;;;;;96.00;64.63;;;;;;;;;;4996427;28;20363;-54
2021/12/31 08:34:47;;;;;;;159.45;93.40;;;18.30;99.90;;;;;;5014526;28;20037;-52
2021/12/31 08:37:13;;;;;;;83.82;52.08;;;;;;;;;;4996608;28;20444;-52
2021/12/31 08:39:38;;;;;;;65.20;42.15;;;21.50;99.90;;;;;;4973323;28;20530;-51
2021/12/31 08:42:05;;;;;;;67.72;45.55;;;21.50;98.80;;;;;;4941094;28;20039;-51
2021/12/31 08:44:31;;;;;;;49.10;34.38;;;20.10;96.70;;;;;;4893932;28;20214;-48
2021/12/31 08:46:56;;;;;;;49.03;37.38;;;18.50;97.20;;;;;;4973338;28;20130;-50
2021/12/31 08:49:24;;;;;;;72.25;46.83;;;17.40;98.70;;;;;;4973069;28;20081;-47
2021/12/31 08:51:50;;;;;;;47.47;31.58;;;16.80;99.90;;;;;;4973166;28;20034;-49
2021/12/31 08:54:16;;;;;;;106.95;62.75;;;16.10;99.90;;;;;;4956920;28;20079;-51
2021/12/31 08:56:43;;;;;;;38.58;30.80;;;15.50;99.90;;;;;;4972977;28;20066;-51
2021/12/31 08:59:10;;;;;;;43.65;35.88;;;14.90;99.90;;;;;;4972946;28;20047;-51
2021/12/31 09:01:36;;;;;;;47.75;36.15;;;14.40;99.90;;;;;;4972839;28;20050;-50
2021/12/31 09:04:02;;;;;;;61.10;48.72;;;14.40;99.90;;;;;;4972897;28;20102;-48
2021/12/31 09:06:27;;;;;;;67.10;47.20;;;15.50;99.90;;;;;;4893603;28;20474;-47
2021/12/31 09:08:55;;;;;;;57.35;44.55;;;15.40;99.90;;;;;;4956723;28;20046;-47
2021/12/31 09:11:21;;;;;;;85.22;54.88;;;15.00;99.90;;;;;;5005355;28;20463;-50
2021/12/31 09:13:47;;;;;;;53.85;39.88;;;;;;;;;;5014473;28;20120;-49
2021/12/31 09:16:13;;;;;;;59.13;44.05;;;13.90;99.90;;;;;;4979589;28;20068;-47
2021/12/31 09:18:39;;;;;;;57.55;40.13;;;13.20;99.90;;;;;;5012381;28;20524;-49
2021/12/31 09:21:06;;;;;;;74.68;55.50;;;12.50;99.90;;;;;;5011165;28;20094;-47
2021/12/31 09:23:31;;;;;;;77.95;50.10;;;12.30;99.90;;;;;;5013816;28;20037;-49
2021/12/31 09:25:58;;;;;;;72.68;47.53;;;11.90;99.90;;;;;;5013947;28;20489;-48
2021/12/31 09:28:25;;;;;;;71.45;44.72;;;11.70;99.90;;;;;;5024861;28;20518;-49
2021/12/31 09:30:51;;;;;;;60.47;41.75;;;11.60;99.90;;;;;;5033590;28;20036;-50
2021/12/31 09:33:17;;;;;;;54.22;35.45;;;11.60;99.90;;;;;;5033276;28;20043;-49
2021/12/31 09:35:42;;;;;;;53.40;36.65;;;11.20;99.90;;;;;;5014950;28;20041;-51
2021/12/31 09:38:09;;;;;;;46.78;35.58;;;11.40;99.90;;;;;;5033220;28;20519;-52
2021/12/31 09:40:36;;;;;;;51.42;37.45;;;11.30;99.90;;;;;;5020719;28;20026;-51
2021/12/31 09:43:04;;;;;;;46.88;34.58;;;11.20;99.90;;;;;;5017567;28;20052;-47
2021/12/31 09:45:33;;;;;;;49.08;32.53;;;11.40;99.90;;;;;;5002119;28;20772;-48
2021/12/31 09:48:00;;;;;;;47.67;32.60;;;11.30;99.90;;;;;;4994012;28;20245;-49
2021/12/31 09:50:26;;;;;;;48.97;32.17;;;11.40;99.90;;;;;;4993773;28;20065;-47
2021/12/31 09:52:56;;;;;;;45.90;33.30;;;11.40;99.90;;;;;;4959162;28;20046;-52
2021/12/31 09:55:40;;;;;;;44.75;33.38;;;11.20;99.90;;;;;;4991853;28;20042;-50
2021/12/31 09:58:08;;;;;;;65.57;36.00;;;11.00;99.90;;;;;;4993362;28;20038;-53
2021/12/31 10:00:34;;;;;;;44.58;34.88;;;11.20;99.90;;;;;;4955884;28;20121;-54
2021/12/31 10:03:25;;;;;;;46.17;34.83;;;11.20;99.90;;;;;;4991369;28;20038;-50
2021/12/31 10:05:52;;;;;;;49.13;36.08;;;10.90;99.90;;;;;;4990447;28;20054;-50
2021/12/31 10:08:24;;;;;;;45.50;34.20;;;11.20;99.90;;;;;;4967416;28;20146;-53
2021/12/31 10:11:08;;;;;;;46.17;33.47;;;11.30;99.90;;;;;;4991207;28;20034;-47
2021/12/31 10:13:39;;;;;;;45.38;32.97;;;11.40;99.90;;;;;;4991088;28;20419;-53
2021/12/31 10:16:17;;;;;;;44.20;32.88;;;11.50;99.90;;;;;;4991209;28;20038;-53
2021/12/31 10:18:43;;;;;;;52.45;37.58;;;11.60;99.90;;;;;;4991364;28;20445;-52
2021/12/31 10:21:09;;;;;;;43.67;32.70;;;11.80;99.90;;;;;;4991389;28;20042;-53
2021/12/31 10:23:38;;;;;;;46.95;30.35;;;11.80;99.90;;;;;;4990803;28;20030;-53
2021/12/31 10:26:12;;;;;;;38.58;27.52;;;12.00;99.90;;;;;;4991447;28;20053;-51
2021/12/31 10:28:56;;;;;;;40.45;27.88;;;12.10;99.90;;;;;;4991333;28;20073;-54
2021/12/31 10:31:22;;;;;;;43.50;30.88;;;12.10;99.90;;;;;;5000717;28;20129;-54
2021/12/31 10:33:49;;;;;;;40.35;28.77;;;12.40;99.90;;;;;;5014322;28;20061;-52
2021/12/31 10:36:37;;;;;;;36.95;27.50;;;12.40;99.90;;;;;;5016909;28;20084;-52
2021/12/31 10:39:22;;;;;;;160.75;92.40;;;12.40;99.90;;;;;;4982219;28;20053;-52
2021/12/31 10:42:09;;;;;;;47.05;28.70;;;12.60;99.90;;;;;;5016746;28;20044;-54
2021/12/31 10:44:41;;;;;;;43.03;29.67;;;12.70;99.90;;;;;;4956018;29;20035;-53
2021/12/31 10:47:10;;;;;;;35.28;25.02;;;12.80;99.90;;;;;;4956051;29;20094;-53
2021/12/31 10:49:59;;;;;;;42.17;27.67;;;12.90;99.90;;;;;;4924004;29;20043;-52
2021/12/31 10:52:34;;;;;;;49.92;30.52;;;12.90;99.90;;;;;;4880090;29;20033;-46
2021/12/31 10:55:23;;;;;;;33.00;24.00;;;12.80;99.90;;;;;;4879980;29;20072;-61
2021/12/31 10:57:59;;;;;;;41.65;24.17;;;12.90;99.90;;;;;;4879779;29;20539;-50
2021/12/31 11:00:29;;;;;;;67.93;36.17;;;13.00;99.90;;;;;;4879701;29;20393;-51
2021/12/31 11:02:56;;;;;;;60.50;40.53;;;13.10;99.90;;;;;;4861357;29;20363;-49
2021/12/31 11:05:23;;;;;;;32.30;23.75;;;13.20;99.90;;;;;;4879902;29;20045;-50
2021/12/31 11:07:50;;;;;;;95.10;44.28;;;13.30;99.90;;;;;;4879775;29;20552;-50
2021/12/31 11:10:18;;;;;;;34.63;24.98;;;13.30;99.90;;;;;;4879701;29;20044;-50
2021/12/31 11:12:47;;;;;;;35.20;23.40;;;13.30;99.90;;;;;;4879709;29;20041;-50
2021/12/31 11:15:15;;;;;;;40.45;23.23;;;13.30;99.90;;;;;;4893392;29;20048;-57
2021/12/31 11:17:41;;;;;;;30.52;23.33;;;13.30;99.90;;;;;;4920884;29;20084;-50
2021/12/31 11:20:08;;;;;;;34.28;22.77;;;13.40;99.90;;;;;;4925724;29;20424;-47
2021/12/31 11:22:35;;;;;;;27.75;23.52;;;13.50;99.90;;;;;;4904617;29;20408;-50
2021/12/31 11:25:19;;;;;;;30.52;22.55;;;13.70;99.90;;;;;;4857702;29;20037;-48
2021/12/31 11:27:47;;;;;;;35.17;24.15;;;13.70;99.90;;;;;;4842714;29;20045;-48
2021/12/31 11:30:37;;;;;;;30.35;24.83;;;13.70;99.90;;;;;;4921301;29;20110;-50
2021/12/31 11:33:17;;;;;;;29.90;23.13;;;13.80;99.90;;;;;;4935953;29;20044;-46
2021/12/31 11:35:49;;;;;;;34.63;24.35;;;13.80;99.90;;;;;;4898023;29;20452;-49
2021/12/31 11:38:21;;;;;;;32.70;24.73;;;13.80;99.90;;;;;;4897886;29;20201;-51
2021/12/31 11:40:51;;;;;;;48.08;29.77;;;13.90;99.90;;;;;;4897999;29;20049;-48
2021/12/31 11:43:25;;;;;;;43.80;26.63;;;13.80;99.90;;;;;;4874840;29;20053;-48
2021/12/31 11:46:09;;;;;;;39.53;26.15;;;13.80;99.90;;;;;;4857762;29;20089;-48
2021/12/31 11:48:44;;;;;;;28.90;22.95;;;13.80;99.90;;;;;;4858820;29;20060;-56
2021/12/31 11:51:16;;;;;;;34.22;23.70;;;13.80;99.90;;;;;;4857922;29;20070;-53
2021/12/31 11:53:57;;;;;;;38.65;24.45;;;13.80;99.90;;;;;;4859663;29;20037;-50
2021/12/31 11:56:39;;;;;;;44.10;25.52;;;13.90;99.90;;;;;;4896611;29;20521;-51
2021/12/31 11:59:10;;;;;;;73.95;47.90;;;13.90;99.90;;;;;;4916742;29;20054;-60
2021/12/31 12:01:36;;;;;;;77.95;49.10;;;14.00;99.90;;;;;;4916695;29;20157;-46
2021/12/31 12:04:38;;;;;;;44.55;24.90;;;14.00;99.90;;;;;;4916709;29;20044;-50
2021/12/31 12:07:28;;;;;;;58.58;35.97;;;14.10;99.90;;;;;;4879100;29;20041;-50
2021/12/31 12:09:53;;;;;;;60.13;33.75;;;14.10;99.90;;;;;;4895763;29;20051;-52
2021/12/31 12:12:31;;;;;;;63.00;37.97;;;14.10;99.90;;;;;;4916426;29;20044;-60
2021/12/31 12:14:59;;;;;;;113.07;41.70;;;14.00;99.90;;;;;;4899114;29;20086;-49
2021/12/31 12:17:30;;;;;;;82.90;43.17;;;14.10;99.90;;;;;;4896655;29;20053;-48
2021/12/31 12:20:02;;;;;;;38.92;25.30;;;14.20;99.90;;;;;;4915894;29;20453;-52
2021/12/31 12:22:52;;;;;;;89.53;46.30;;;14.30;99.90;;;;;;4927624;29;20028;-46
2021/12/31 12:25:22;;;;;;;70.03;40.60;;;14.30;99.90;;;;;;4930882;29;20035;-48
2021/12/31 12:28:07;;;;;;;39.08;25.67;;;14.50;99.90;;;;;;4916002;29;20072;-49
2021/12/31 12:30:35;;;;;;;42.72;25.42;;;14.40;99.90;;;;;;4916202;29;20032;-50
2021/12/31 12:35:42;;;;;;;40.80;27.67;;;14.60;99.90;;;;;;4886980;29;20079;-55
2021/12/31 12:38:12;;;;;;;38.72;23.50;;;14.40;99.90;;;;;;4884214;29;20052;-51
2021/12/31 12:40:46;;;;;;;53.67;35.80;;;14.40;99.90;;;;;;4942450;28;20445;-53